Time;durP1;ratioP1;P1;durP2;ratioP2;P2;SDS_P1;SDS_P2;PMS_P1;PMS_P2;Temp;Humidity;BMP_temperature;BMP_pressure;BME280_temperature;BME280_humidity;BME280_pressure;Samples;Min_cycle;Max_cycle;Signal;HPM_P1;HPM_P2
2023/04/30 00:01:41;;;;;;;0.00;0.00;;;12.00;99.90;;;;;;5091067;28;20172;-59
2023/04/30 00:04:06;;;;;;;0.00;0.00;;;12.00;99.90;;;;;;5090914;28;20246;-58
2023/04/30 00:06:32;;;;;;;0.10;0.10;;;12.00;99.90;;;;;;5090815;28;20176;-58
2023/04/30 00:08:57;;;;;;;0.10;0.10;;;12.00;99.90;;;;;;5090552;28;20203;-58
2023/04/30 00:11:24;;;;;;;0.00;0.00;;;12.00;99.90;;;;;;5090316;28;20176;-58
2023/04/30 00:13:50;;;;;;;0.00;0.00;;;12.00;99.90;;;;;;5090141;28;20229;-58
2023/04/30 00:16:16;;;;;;;0.00;0.00;;;11.90;99.90;;;;;;5089972;28;20245;-58
2023/04/30 00:18:42;;;;;;;0.00;0.00;;;11.90;99.90;;;;;;5090418;28;20184;-58
2023/04/30 00:21:07;;;;;;;0.00;0.00;;;11.90;99.90;;;;;;5090237;28;20643;-58
2023/04/30 00:23:33;;;;;;;0.00;0.00;;;11.90;99.90;;;;;;5091598;28;20231;-58
2023/04/30 00:25:59;;;;;;;0.00;0.00;;;12.00;99.90;;;;;;5094097;28;20175;-58
2023/04/30 00:28:24;;;;;;;0.00;0.00;;;12.00;99.90;;;;;;5094063;28;20211;-58
2023/04/30 00:30:50;;;;;;;0.00;0.00;;;11.90;99.90;;;;;;5094311;28;20176;-58
2023/04/30 00:33:15;;;;;;;0.00;0.00;;;11.90;99.90;;;;;;5094492;28;20176;-58
2023/04/30 00:35:41;;;;;;;0.00;0.00;;;11.90;99.90;;;;;;5094041;28;20180;-58
2023/04/30 00:38:06;;;;;;;0.00;0.00;;;11.90;99.90;;;;;;5094106;28;20234;-58
2023/04/30 00:40:34;;;;;;;0.00;0.00;;;11.90;99.90;;;;;;5094767;28;20167;-58
2023/04/30 00:42:59;;;;;;;0.00;0.00;;;11.90;99.90;;;;;;5094486;28;20184;-58
2023/04/30 00:45:25;;;;;;;0.20;0.20;;;11.90;99.90;;;;;;5094270;28;20225;-58
2023/04/30 00:47:50;;;;;;;0.00;0.00;;;11.90;99.90;;;;;;5094495;28;20216;-58
2023/04/30 00:50:16;;;;;;;0.00;0.00;;;11.90;99.90;;;;;;5094045;28;20187;-58
2023/04/30 00:52:42;;;;;;;0.00;0.00;;;11.90;99.90;;;;;;5092988;28;20578;-58
2023/04/30 00:55:10;;;;;;;0.00;0.00;;;11.90;99.90;;;;;;5094462;28;20688;-58
2023/04/30 00:57:36;;;;;;;0.00;0.00;;;11.90;99.90;;;;;;5094077;28;20184;-58
2023/04/30 01:00:03;;;;;;;0.00;0.00;;;12.00;99.90;;;;;;5094328;28;20168;-58
2023/04/30 01:02:30;;;;;;;0.10;0.10;;;11.90;99.90;;;;;;5094113;28;20574;-58
2023/04/30 01:04:56;;;;;;;0.00;0.00;;;11.90;99.90;;;;;;5093484;28;20187;-59
2023/04/30 01:07:22;;;;;;;0.00;0.00;;;11.90;99.90;;;;;;5093867;28;20255;-58
2023/04/30 01:09:47;;;;;;;0.00;0.00;;;11.90;99.90;;;;;;5093894;28;20180;-58
2023/04/30 01:12:28;;;;;;;0.00;0.00;;;11.80;99.90;;;;;;5093486;28;20213;-59
2023/04/30 01:15:14;;;;;;;0.10;0.10;;;11.90;99.90;;;;;;5093711;28;20179;-59
2023/04/30 01:18:17;;;;;;;0.00;0.00;;;11.80;99.90;;;;;;5093845;28;20634;-58
2023/04/30 01:20:53;;;;;;;0.10;0.10;;;11.80;99.90;;;;;;5093605;28;20179;-59
2023/04/30 01:23:40;;;;;;;0.00;0.00;;;11.80;99.90;;;;;;5092372;28;20276;-58
2023/04/30 01:26:18;;;;;;;0.00;0.00;;;11.80;99.90;;;;;;5090319;28;20271;-58
2023/04/30 01:28:45;;;;;;;0.00;0.00;;;11.80;99.90;;;;;;5093586;28;20207;-58
2023/04/30 01:31:13;;;;;;;0.00;0.00;;;11.80;99.90;;;;;;5093087;28;20175;-58
2023/04/30 01:33:38;;;;;;;0.00;0.00;;;11.80;99.90;;;;;;5093004;28;20180;-59
2023/04/30 01:36:24;;;;;;;0.00;0.00;;;11.80;99.90;;;;;;5092903;28;20226;-58
2023/04/30 01:39:10;;;;;;;0.00;0.00;;;11.80;99.90;;;;;;5093129;28;20188;-58
2023/04/30 01:41:53;;;;;;;0.00;0.00;;;11.80;99.90;;;;;;5092619;28;20172;-58
2023/04/30 01:44:41;;;;;;;0.00;0.00;;;11.80;99.90;;;;;;5082410;28;20176;-58
2023/04/30 01:47:17;;;;;;;1.25;0.98;;;11.80;99.90;;;;;;5076266;28;20239;-58
2023/04/30 01:50:08;;;;;;;0.00;0.00;;;11.80;99.90;;;;;;5086678;28;20184;-58
2023/04/30 01:52:44;;;;;;;0.43;0.43;;;11.80;99.90;;;;;;5092429;28;20187;-58
2023/04/30 01:55:27;;;;;;;0.00;0.00;;;11.80;99.90;;;;;;5092716;28;20170;-58
2023/04/30 01:57:57;;;;;;;0.45;0.45;;;11.80;99.90;;;;;;5092929;28;20669;-58
2023/04/30 02:00:26;;;;;;;0.03;0.03;;;11.70;99.90;;;;;;5092657;28;20723;-58
2023/04/30 02:02:52;;;;;;;0.00;0.00;;;11.80;99.90;;;;;;5093060;28;20214;-58
2023/04/30 02:05:17;;;;;;;0.00;0.00;;;11.70;99.90;;;;;;5092283;28;20183;-58
2023/04/30 02:07:46;;;;;;;0.15;0.10;;;11.70;99.90;;;;;;5092757;28;20615;-58
2023/04/30 02:10:13;;;;;;;3.03;0.25;;;11.70;99.90;;;;;;5092797;28;20176;-58
2023/04/30 02:12:39;;;;;;;0.00;0.00;;;11.70;99.90;;;;;;5092528;28;20242;-58
2023/04/30 02:15:05;;;;;;;0.00;0.00;;;11.70;99.90;;;;;;5092651;28;20229;-58
2023/04/30 02:17:31;;;;;;;0.10;0.10;;;11.70;99.90;;;;;;5092675;28;20180;-58
2023/04/30 02:19:57;;;;;;;0.00;0.00;;;11.70;99.90;;;;;;5092583;28;20233;-58
2023/04/30 02:22:23;;;;;;;0.05;0.05;;;11.70;99.90;;;;;;5092650;28;20176;-59
2023/04/30 02:24:49;;;;;;;0.00;0.00;;;11.60;99.90;;;;;;5087800;28;20224;-58
2023/04/30 02:27:15;;;;;;;0.22;0.22;;;11.60;99.90;;;;;;5088826;28;20211;-58
2023/04/30 02:29:40;;;;;;;0.00;0.00;;;11.60;99.90;;;;;;5092628;28;20236;-58
2023/04/30 02:32:06;;;;;;;0.00;0.00;;;11.50;99.90;;;;;;5092235;28;20216;-58
2023/04/30 02:34:32;;;;;;;0.00;0.00;;;11.50;99.90;;;;;;5092351;28;20195;-58
2023/04/30 02:36:57;;;;;;;0.08;0.08;;;11.50;99.90;;;;;;5087486;28;20173;-58
2023/04/30 02:39:23;;;;;;;0.00;0.00;;;11.50;99.90;;;;;;5087173;28;20184;-58
2023/04/30 02:41:48;;;;;;;0.00;0.00;;;11.50;99.90;;;;;;5092353;28;20182;-58
2023/04/30 02:44:14;;;;;;;0.00;0.00;;;11.50;99.90;;;;;;5091931;28;20536;-58
2023/04/30 02:46:40;;;;;;;0.00;0.00;;;11.50;99.90;;;;;;5091145;28;20179;-58
2023/04/30 02:49:05;;;;;;;0.28;0.28;;;11.40;99.90;;;;;;5091449;28;20260;-58
2023/04/30 02:51:31;;;;;;;0.30;0.30;;;11.40;99.90;;;;;;5092308;28;20188;-59
2023/04/30 02:53:57;;;;;;;0.00;0.00;;;11.40;99.90;;;;;;5091778;28;20176;-58
2023/04/30 02:56:22;;;;;;;0.00;0.00;;;11.50;99.90;;;;;;5092268;28;20260;-59
2023/04/30 02:58:48;;;;;;;0.00;0.00;;;11.40;99.90;;;;;;5091841;28;20202;-59
2023/04/30 03:01:14;;;;;;;0.00;0.00;;;11.40;99.90;;;;;;5091937;28;20172;-58
2023/04/30 03:03:40;;;;;;;0.10;0.10;;;11.40;99.90;;;;;;5091503;28;20173;-58
2023/04/30 03:06:05;;;;;;;0.00;0.00;;;11.40;99.90;;;;;;5091665;28;20631;-59
2023/04/30 03:08:31;;;;;;;0.05;0.05;;;11.30;99.90;;;;;;5091740;28;20277;-58
2023/04/30 03:10:56;;;;;;;0.00;0.00;;;11.30;99.90;;;;;;5091230;28;20183;-58
2023/04/30 03:13:24;;;;;;;0.13;0.13;;;11.30;99.90;;;;;;5091893;28;20187;-58
2023/04/30 03:15:59;;;;;;;0.00;0.00;;;11.30;99.90;;;;;;5091977;28;20171;-58
2023/04/30 03:18:26;;;;;;;0.20;0.20;;;11.30;99.90;;;;;;5091653;28;20287;-58
2023/04/30 03:20:52;;;;;;;0.00;0.00;;;11.20;99.90;;;;;;5091655;28;20180;-58
2023/04/30 03:23:17;;;;;;;0.00;0.00;;;11.20;99.90;;;;;;5090965;28;20218;-58
2023/04/30 03:25:43;;;;;;;0.40;0.30;;;11.20;99.90;;;;;;5091297;28;20510;-58
2023/04/30 03:28:08;;;;;;;0.00;0.00;;;11.20;99.90;;;;;;5091665;28;20230;-58
2023/04/30 03:30:34;;;;;;;0.00;0.00;;;11.20;99.90;;;;;;5091307;28;20639;-58
2023/04/30 03:32:59;;;;;;;0.30;0.30;;;11.10;99.90;;;;;;5091497;28;20176;-59
2023/04/30 03:35:25;;;;;;;0.03;0.03;;;11.10;99.90;;;;;;5091315;28;20179;-58
2023/04/30 03:37:50;;;;;;;0.03;0.03;;;11.10;99.90;;;;;;5091236;28;20211;-58
2023/04/30 03:40:16;;;;;;;0.15;0.15;;;11.10;99.90;;;;;;5090942;28;20183;-58
2023/04/30 03:42:41;;;;;;;0.00;0.00;;;11.10;99.90;;;;;;5091231;28;20223;-58
2023/04/30 03:45:07;;;;;;;0.00;0.00;;;11.10;99.90;;;;;;5091412;28;20183;-58
2023/04/30 03:47:34;;;;;;;0.00;0.00;;;11.10;99.90;;;;;;5090879;28;20204;-58
2023/04/30 03:50:00;;;;;;;0.20;0.20;;;11.00;99.90;;;;;;5091133;28;20209;-58
2023/04/30 03:52:26;;;;;;;0.00;0.00;;;11.00;99.90;;;;;;5090676;28;20753;-58
2023/04/30 03:54:51;;;;;;;0.05;0.05;;;11.00;99.90;;;;;;5090699;28;20188;-58
2023/04/30 03:57:17;;;;;;;0.00;0.00;;;11.00;99.90;;;;;;5089454;28;20183;-58
2023/04/30 03:59:43;;;;;;;0.00;0.00;;;11.00;99.90;;;;;;5090657;28;20206;-58
2023/04/30 04:02:08;;;;;;;0.00;0.00;;;11.00;99.90;;;;;;5090070;28;20237;-59
2023/04/30 04:04:34;;;;;;;0.20;0.20;;;11.00;99.90;;;;;;5089775;28;20179;-58
2023/04/30 04:07:01;;;;;;;0.00;0.00;;;11.00;99.90;;;;;;5090537;28;20670;-58
2023/04/30 04:09:27;;;;;;;0.00;0.00;;;11.00;99.90;;;;;;5090695;28;20215;-58
2023/04/30 04:11:52;;;;;;;0.00;0.00;;;10.90;99.90;;;;;;5090662;28;20211;-58
2023/04/30 04:14:18;;;;;;;0.47;0.47;;;10.90;99.90;;;;;;5090710;28;20332;-58
2023/04/30 04:16:43;;;;;;;0.50;0.50;;;10.90;99.90;;;;;;5091266;28;20188;-58
2023/04/30 04:19:09;;;;;;;0.00;0.00;;;10.90;99.90;;;;;;5090570;28;20183;-58
2023/04/30 04:21:35;;;;;;;0.00;0.00;;;10.90;99.90;;;;;;5091083;28;20182;-58
2023/04/30 04:24:07;;;;;;;0.00;0.00;;;10.90;99.90;;;;;;5088716;28;20220;-58
2023/04/30 04:26:36;;;;;;;0.05;0.05;;;10.90;99.90;;;;;;5090961;28;20238;-58
2023/04/30 04:29:03;;;;;;;0.00;0.00;;;10.90;99.90;;;;;;5090625;28;20219;-58
2023/04/30 04:31:29;;;;;;;0.17;0.17;;;10.90;99.90;;;;;;5090645;28;20180;-58
2023/04/30 04:33:57;;;;;;;0.00;0.00;;;10.90;99.90;;;;;;5090101;28;20183;-58
2023/04/30 04:36:27;;;;;;;0.00;0.00;;;10.90;99.90;;;;;;5087577;28;20198;-58
2023/04/30 04:38:54;;;;;;;0.00;0.00;;;10.90;99.90;;;;;;5089347;28;20211;-58
2023/04/30 04:41:20;;;;;;;0.20;0.20;;;10.90;99.90;;;;;;5089977;28;20176;-58
2023/04/30 04:43:46;;;;;;;0.10;0.10;;;11.00;99.90;;;;;;5090251;28;20175;-58
2023/04/30 04:46:15;;;;;;;0.00;0.00;;;11.00;99.90;;;;;;5089849;28;20586;-58
2023/04/30 04:48:41;;;;;;;0.80;0.20;;;11.00;99.90;;;;;;5090161;28;20224;-58
2023/04/30 04:51:06;;;;;;;0.00;0.00;;;11.00;99.90;;;;;;5088818;28;20557;-58
2023/04/30 04:53:32;;;;;;;0.00;0.00;;;11.00;99.90;;;;;;5090120;28;20201;-58
2023/04/30 04:55:57;;;;;;;0.00;0.00;;;11.00;99.90;;;;;;5089962;28;20271;-59
2023/04/30 04:58:23;;;;;;;0.00;0.00;;;11.10;99.90;;;;;;5090106;28;20169;-58
2023/04/30 05:00:48;;;;;;;0.00;0.00;;;11.20;99.90;;;;;;5090263;28;20191;-58
2023/04/30 05:03:14;;;;;;;0.08;0.08;;;11.20;99.90;;;;;;5089541;28;20495;-59
2023/04/30 05:05:39;;;;;;;0.00;0.00;;;11.20;99.90;;;;;;5089724;28;20187;-58
2023/04/30 05:08:05;;;;;;;0.00;0.00;;;11.30;99.90;;;;;;5089880;28;20204;-58
2023/04/30 05:10:30;;;;;;;0.00;0.00;;;11.30;99.90;;;;;;5093170;28;20180;-58
2023/04/30 05:12:56;;;;;;;0.00;0.00;;;11.40;99.90;;;;;;5093669;28;20164;-58
2023/04/30 05:15:22;;;;;;;0.10;0.10;;;11.40;99.90;;;;;;5093507;28;20607;-58
2023/04/30 05:17:47;;;;;;;0.00;0.00;;;11.50;99.90;;;;;;5093785;28;20184;-58
2023/04/30 05:20:13;;;;;;;0.10;0.10;;;11.60;99.90;;;;;;5092828;28;20262;-59
2023/04/30 05:22:38;;;;;;;0.00;0.00;;;11.60;99.90;;;;;;5093088;28;20172;-58
2023/04/30 05:25:04;;;;;;;0.08;0.08;;;11.70;99.90;;;;;;5093207;28;20187;-58
2023/04/30 05:27:30;;;;;;;0.10;0.10;;;11.80;99.90;;;;;;5093274;28;20223;-59
2023/04/30 05:29:55;;;;;;;0.10;0.10;;;12.00;99.90;;;;;;5092985;28;20176;-61
2023/04/30 05:32:22;;;;;;;0.00;0.00;;;12.10;99.90;;;;;;5093199;28;20254;-58
2023/04/30 05:34:47;;;;;;;0.38;0.38;;;12.20;99.90;;;;;;5092877;28;20176;-58
2023/04/30 05:37:13;;;;;;;0.00;0.00;;;12.40;99.90;;;;;;5092110;28;20552;-58
2023/04/30 05:39:38;;;;;;;0.00;0.00;;;12.50;99.90;;;;;;5093248;28;20212;-58
2023/04/30 05:42:04;;;;;;;0.00;0.00;;;12.60;99.90;;;;;;5092847;28;20264;-59
2023/04/30 05:44:30;;;;;;;0.15;0.15;;;12.70;99.90;;;;;;5092923;28;20180;-58
2023/04/30 05:46:56;;;;;;;0.00;0.00;;;12.80;99.90;;;;;;5092732;28;20183;-58
2023/04/30 05:49:21;;;;;;;0.00;0.00;;;13.00;99.90;;;;;;5092692;28;20184;-58
2023/04/30 05:51:47;;;;;;;0.15;0.15;;;13.20;99.90;;;;;;5093165;28;20172;-58
2023/04/30 05:54:12;;;;;;;0.00;0.00;;;13.50;99.90;;;;;;5092804;28;20232;-59
2023/04/30 05:56:38;;;;;;;0.00;0.00;;;13.90;99.90;;;;;;5092644;28;20203;-59
2023/04/30 05:59:03;;;;;;;0.00;0.00;;;14.30;99.90;;;;;;5092668;28;20190;-60
2023/04/30 06:01:29;;;;;;;0.10;0.10;;;14.90;99.90;;;;;;5092714;28;20649;-60
2023/04/30 06:03:54;;;;;;;0.00;0.00;;;15.30;99.90;;;;;;5091759;28;20190;-60
2023/04/30 06:06:20;;;;;;;0.00;0.00;;;15.90;99.90;;;;;;5092628;28;20184;-60
2023/04/30 06:08:45;;;;;;;0.00;0.00;;;16.50;99.90;;;;;;5092195;28;20218;-59
2023/04/30 06:11:12;;;;;;;0.00;0.00;;;17.00;99.90;;;;;;5091840;28;20180;-60
2023/04/30 06:13:38;;;;;;;0.00;0.00;;;17.40;99.10;;;;;;5088439;28;20164;-59
2023/04/30 06:16:05;;;;;;;0.00;0.00;;;17.90;98.70;;;;;;5092374;28;20518;-60
2023/04/30 06:18:30;;;;;;;0.00;0.00;;;18.30;97.30;;;;;;5091812;28;20259;-59
2023/04/30 06:20:56;;;;;;;0.10;0.10;;;18.40;95.30;;;;;;5090989;28;20267;-59
2023/04/30 06:23:21;;;;;;;0.20;0.20;;;18.50;95.10;;;;;;5091720;28;20302;-60
2023/04/30 06:25:47;;;;;;;0.20;0.20;;;18.80;94.50;;;;;;5092470;28;20620;-59
2023/04/30 06:28:12;;;;;;;0.10;0.10;;;19.10;94.30;;;;;;5091698;28;20220;-60
2023/04/30 06:30:40;;;;;;;0.00;0.00;;;19.20;92.40;;;;;;5091976;28;20172;-59
2023/04/30 06:33:05;;;;;;;0.00;0.00;;;19.00;92.80;;;;;;5092047;28;20248;-60
2023/04/30 06:35:31;;;;;;;0.00;0.00;;;19.30;92.20;;;;;;5091724;28;20184;-60
2023/04/30 06:37:56;;;;;;;0.00;0.00;;;19.40;91.20;;;;;;5091685;28;20180;-60
2023/04/30 06:40:22;;;;;;;0.00;0.00;;;19.50;91.30;;;;;;5092155;28;20172;-60
2023/04/30 06:42:47;;;;;;;0.00;0.00;;;19.60;90.90;;;;;;5091356;28;20547;-60
2023/04/30 06:45:14;;;;;;;0.00;0.00;;;19.60;90.00;;;;;;5091645;28;20168;-60
2023/04/30 06:47:41;;;;;;;0.20;0.20;;;19.60;89.80;;;;;;5091990;28;20220;-59
2023/04/30 06:50:07;;;;;;;0.13;0.13;;;19.80;90.00;;;;;;5091158;28;20325;-59
2023/04/30 06:52:33;;;;;;;0.10;0.10;;;19.80;88.30;;;;;;5091000;28;20787;-60
2023/04/30 06:54:59;;;;;;;0.00;0.00;;;19.90;88.40;;;;;;5091440;28;20206;-60
2023/04/30 06:57:26;;;;;;;0.00;0.00;;;20.20;88.00;;;;;;5091919;28;20169;-59
2023/04/30 06:59:51;;;;;;;0.00;0.00;;;20.20;87.20;;;;;;5091827;28;20209;-59
2023/04/30 07:02:17;;;;;;;0.00;0.00;;;20.60;86.30;;;;;;5091907;28;20176;-60
2023/04/30 07:04:43;;;;;;;0.00;0.00;;;20.90;84.70;;;;;;5091927;28;20164;-58
2023/04/30 07:07:08;;;;;;;0.03;0.03;;;21.00;83.20;;;;;;5091205;28;20191;-60
2023/04/30 07:09:35;;;;;;;0.00;0.00;;;21.00;82.00;;;;;;5091338;28;20183;-59
2023/04/30 07:12:00;;;;;;;0.00;0.00;;;21.10;81.90;;;;;;5091635;28;20544;-59
2023/04/30 07:14:26;;;;;;;0.00;0.00;;;21.20;80.90;;;;;;5091106;28;20263;-60
2023/04/30 07:16:52;;;;;;;0.03;0.03;;;21.30;80.10;;;;;;5091072;28;20278;-58
2023/04/30 07:19:18;;;;;;;0.05;0.05;;;21.50;79.80;;;;;;5091040;28;20252;-59
2023/04/30 07:21:43;;;;;;;0.00;0.00;;;21.70;78.60;;;;;;5091209;28;20180;-59
2023/04/30 07:24:09;;;;;;;0.00;0.00;;;22.20;77.90;;;;;;5090989;28;20361;-59
2023/04/30 07:26:35;;;;;;;0.00;0.00;;;22.40;76.80;;;;;;5090502;28;20645;-58
2023/04/30 07:29:01;;;;;;;0.00;0.00;;;22.80;76.90;;;;;;5090837;28;20303;-60
2023/04/30 07:31:26;;;;;;;0.00;0.00;;;22.80;75.10;;;;;;5089952;28;20199;-58
2023/04/30 07:33:54;;;;;;;0.05;0.05;;;22.80;74.30;;;;;;5091338;28;20219;-60
2023/04/30 07:36:19;;;;;;;0.00;0.00;;;22.70;71.50;;;;;;5091178;28;20176;-60
2023/04/30 07:38:45;;;;;;;0.13;0.10;;;22.40;73.10;;;;;;5091401;28;20654;-60
2023/04/30 07:41:10;;;;;;;0.00;0.00;;;22.40;73.10;;;;;;5090734;28;20179;-60
2023/04/30 07:43:36;;;;;;;0.00;0.00;;;22.50;73.80;;;;;;5091333;28;20635;-60
2023/04/30 07:46:02;;;;;;;0.00;0.00;;;22.70;72.40;;;;;;5091025;28;20223;-60
2023/04/30 07:48:28;;;;;;;0.00;0.00;;;22.50;70.90;;;;;;5091123;28;20219;-60
2023/04/30 07:50:55;;;;;;;0.00;0.00;;;22.40;70.70;;;;;;5091062;28;20192;-60
2023/04/30 07:53:22;;;;;;;0.00;0.00;;;22.30;72.20;;;;;;5090629;28;20188;-60
2023/04/30 07:55:47;;;;;;;0.00;0.00;;;22.30;74.00;;;;;;5091026;28;20271;-60
2023/04/30 07:58:13;;;;;;;0.00;0.00;;;22.70;73.80;;;;;;5090799;28;20263;-60
2023/04/30 08:00:38;;;;;;;0.10;0.10;;;23.00;71.10;;;;;;5091012;28;20182;-61
2023/04/30 08:03:04;;;;;;;0.00;0.00;;;22.90;70.60;;;;;;5090684;28;20248;-60
2023/04/30 08:05:29;;;;;;;0.00;0.00;;;22.80;68.80;;;;;;5089903;28;20200;-60
2023/04/30 08:07:55;;;;;;;0.00;0.00;;;22.60;69.30;;;;;;5088997;28;20299;-60
2023/04/30 08:10:21;;;;;;;0.10;0.10;;;22.50;69.20;;;;;;5089276;28;20706;-60
2023/04/30 08:12:46;;;;;;;0.00;0.00;;;22.70;69.90;;;;;;5090674;28;20168;-60
2023/04/30 08:15:12;;;;;;;0.00;0.00;;;22.70;68.40;;;;;;5091092;28;20179;-60
2023/04/30 08:17:37;;;;;;;0.00;0.00;;;22.40;67.70;;;;;;5090873;28;20688;-60
2023/04/30 08:20:04;;;;;;;0.00;0.00;;;22.10;68.60;;;;;;5091060;28;20176;-60
2023/04/30 08:22:30;;;;;;;0.00;0.00;;;22.00;70.90;;;;;;5089507;28;20709;-59
2023/04/30 08:24:55;;;;;;;0.00;0.00;;;22.30;72.10;;;;;;5090379;28;20306;-59
2023/04/30 08:27:21;;;;;;;0.00;0.00;;;22.70;70.20;;;;;;5090484;28;20613;-59
2023/04/30 08:29:47;;;;;;;0.25;0.25;;;22.70;68.90;;;;;;5090618;28;20187;-60
2023/04/30 08:32:13;;;;;;;0.03;0.03;;;22.50;66.60;;;;;;5090389;28;20180;-60
2023/04/30 08:34:42;;;;;;;0.00;0.00;;;22.40;66.70;;;;;;5089936;28;20207;-60
2023/04/30 08:37:08;;;;;;;0.00;0.00;;;22.00;66.40;;;;;;5090739;28;20601;-60
2023/04/30 08:39:34;;;;;;;0.00;0.00;;;21.40;66.70;;;;;;5090038;28;20263;-60
2023/04/30 08:42:02;;;;;;;0.00;0.00;;;21.10;68.30;;;;;;5089887;28;20181;-60
2023/04/30 08:44:29;;;;;;;0.00;0.00;;;21.40;71.70;;;;;;5092080;28;20168;-60
2023/04/30 08:46:55;;;;;;;0.05;0.05;;;21.70;71.00;;;;;;5093329;28;20211;-60
2023/04/30 08:49:21;;;;;;;0.00;0.00;;;21.90;67.10;;;;;;5091725;28;20223;-59
2023/04/30 08:51:48;;;;;;;0.00;0.00;;;21.70;66.00;;;;;;5092273;28;20172;-59
2023/04/30 08:54:13;;;;;;;0.00;0.00;;;21.60;66.00;;;;;;5093445;28;20168;-60
2023/04/30 08:56:40;;;;;;;0.00;0.00;;;21.40;66.60;;;;;;5093862;28;20172;-60
2023/04/30 08:59:06;;;;;;;0.00;0.00;;;21.30;67.10;;;;;;5094266;28;20630;-61
2023/04/30 09:01:33;;;;;;;0.00;0.00;;;21.00;66.10;;;;;;5094188;28;20195;-61
2023/04/30 09:03:59;;;;;;;0.00;0.00;;;20.90;68.40;;;;;;5094189;28;20531;-61
2023/04/30 09:06:26;;;;;;;0.00;0.00;;;20.70;69.20;;;;;;5091508;28;20184;-61
2023/04/30 09:08:53;;;;;;;0.00;0.00;;;20.70;68.60;;;;;;5093818;28;20784;-61
2023/04/30 09:11:24;;;;;;;0.00;0.00;;;20.60;66.80;;;;;;5093693;28;20172;-61
2023/04/30 09:13:53;;;;;;;0.00;0.00;;;20.80;67.60;;;;;;5089588;28;20180;-60
2023/04/30 09:16:23;;;;;;;0.20;0.20;;;20.80;66.30;;;;;;5094218;28;20183;-61
2023/04/30 09:18:49;;;;;;;0.00;0.00;;;20.60;66.60;;;;;;5092866;28;20222;-61
2023/04/30 09:21:15;;;;;;;0.00;0.00;;;20.50;66.50;;;;;;5093665;28;20192;-61
2023/04/30 09:23:58;;;;;;;0.00;0.00;;;20.50;64.80;;;;;;5075970;28;20582;-61
2023/04/30 09:26:30;;;;;;;0.00;0.00;;;20.20;65.70;;;;;;5074117;28;20208;-61
2023/04/30 09:28:57;;;;;;;0.00;0.00;;;19.90;64.50;;;;;;5078720;28;20266;-61
2023/04/30 09:31:23;;;;;;;0.00;0.00;;;19.70;64.40;;;;;;5093990;28;20229;-61
2023/04/30 09:33:50;;;;;;;0.00;0.00;;;19.50;66.20;;;;;;5093987;28;20184;-61
2023/04/30 09:36:16;;;;;;;0.00;0.00;;;19.30;68.80;;;;;;5093735;28;20179;-62
2023/04/30 09:38:41;;;;;;;0.00;0.00;;;19.20;68.30;;;;;;5093637;28;20184;-60
2023/04/30 09:41:26;;;;;;;0.00;0.00;;;19.10;67.00;;;;;;5093352;28;20176;-60
2023/04/30 09:43:56;;;;;;;0.00;0.00;;;19.00;67.10;;;;;;5093330;28;20180;-60
2023/04/30 09:46:32;;;;;;;0.00;0.00;;;19.20;68.70;;;;;;5093578;28;20168;-60
2023/04/30 09:48:59;;;;;;;0.00;0.00;;;19.30;68.40;;;;;;5093189;28;20212;-60
2023/04/30 09:51:26;;;;;;;0.00;0.00;;;19.20;63.60;;;;;;5072162;28;20513;-59
2023/04/30 09:53:52;;;;;;;0.00;0.00;;;19.20;65.00;;;;;;5093337;28;20204;-60
2023/04/30 09:56:21;;;;;;;0.00;0.00;;;19.20;65.00;;;;;;5093108;28;20718;-60
2023/04/30 09:58:52;;;;;;;0.00;0.00;;;19.20;62.70;;;;;;5093423;28;20187;-60
2023/04/30 10:01:19;;;;;;;0.00;0.00;;;19.10;63.20;;;;;;5092972;28;20271;-60
2023/04/30 10:03:46;;;;;;;0.00;0.00;;;19.10;63.70;;;;;;5093506;28;20180;-60
2023/04/30 10:06:12;;;;;;;0.00;0.00;;;19.10;62.90;;;;;;5093160;28;20184;-60
2023/04/30 10:08:41;;;;;;;0.00;0.00;;;19.10;62.70;;;;;;5093361;28;20304;-60
2023/04/30 10:11:07;;;;;;;0.00;0.00;;;19.20;62.50;;;;;;5093306;28;20218;-60
2023/04/30 10:13:46;;;;;;;0.00;0.00;;;19.10;62.00;;;;;;5091477;28;20258;-60
2023/04/30 10:16:26;;;;;;;0.00;0.00;;;19.00;62.60;;;;;;5092898;28;20172;-60
2023/04/30 10:18:53;;;;;;;0.00;0.00;;;18.90;63.10;;;;;;5093180;28;20256;-60
2023/04/30 10:21:23;;;;;;;0.00;0.00;;;18.80;62.60;;;;;;5092808;28;20183;-60
2023/04/30 10:23:49;;;;;;;0.00;0.00;;;18.80;63.30;;;;;;5092664;28;20215;-60
2023/04/30 10:26:15;;;;;;;0.00;0.00;;;18.80;63.30;;;;;;5092771;28;20241;-60
2023/04/30 10:28:41;;;;;;;0.00;0.00;;;18.70;63.00;;;;;;5092656;28;20674;-60
2023/04/30 10:31:11;;;;;;;0.00;0.00;;;18.80;63.70;;;;;;5092427;28;20177;-60
2023/04/30 10:33:48;;;;;;;0.00;0.00;;;18.80;63.00;;;;;;5092610;28;20208;-60
2023/04/30 10:36:27;;;;;;;0.00;0.00;;;18.70;62.70;;;;;;5092567;28;20719;-60
2023/04/30 10:38:53;;;;;;;0.00;0.00;;;18.70;63.60;;;;;;5092611;28;20184;-60
2023/04/30 10:41:19;;;;;;;0.00;0.00;;;18.70;63.80;;;;;;5092570;28;20176;-60
2023/04/30 10:43:47;;;;;;;0.00;0.00;;;18.80;63.10;;;;;;5092563;28;20176;-60
2023/04/30 10:46:22;;;;;;;0.00;0.00;;;18.80;63.60;;;;;;5091980;28;20187;-61
2023/04/30 10:48:48;;;;;;;0.00;0.00;;;18.80;61.80;;;;;;5088931;28;20216;-60
2023/04/30 10:51:13;;;;;;;0.00;0.00;;;18.90;61.60;;;;;;5092161;28;20262;-60
2023/04/30 10:53:41;;;;;;;0.00;0.00;;;18.90;60.70;;;;;;5087789;28;20187;-60
2023/04/30 10:56:07;;;;;;;0.00;0.00;;;18.90;60.70;;;;;;5092314;28;20183;-61
2023/04/30 10:58:40;;;;;;;0.08;0.05;;;18.90;60.50;;;;;;5092003;28;20769;-61
2023/04/30 11:01:12;;;;;;;0.00;0.00;;;18.80;61.50;;;;;;5071903;28;20647;-60
2023/04/30 11:03:41;;;;;;;0.10;0.10;;;18.80;61.80;;;;;;5071981;28;20222;-60
2023/04/30 11:06:09;;;;;;;0.00;0.00;;;18.90;61.20;;;;;;5071668;28;20192;-61
2023/04/30 11:08:36;;;;;;;0.00;0.00;;;18.90;61.20;;;;;;5071417;28;20303;-60
2023/04/30 11:11:04;;;;;;;0.00;0.00;;;19.00;61.50;;;;;;5071809;28;20705;-61
2023/04/30 11:13:40;;;;;;;0.00;0.00;;;19.00;62.80;;;;;;5083607;28;20187;-60
2023/04/30 11:16:06;;;;;;;0.00;0.00;;;19.00;63.20;;;;;;5091913;28;20176;-60
2023/04/30 11:18:32;;;;;;;0.00;0.00;;;19.00;64.70;;;;;;5092033;28;20658;-60
2023/04/30 11:20:57;;;;;;;0.00;0.00;;;18.90;64.60;;;;;;5091461;28;20267;-61
2023/04/30 11:23:25;;;;;;;0.00;0.00;;;18.90;64.30;;;;;;5091243;28;20227;-60
2023/04/30 11:25:54;;;;;;;0.10;0.10;;;18.70;63.40;;;;;;5091903;28;20192;-60
2023/04/30 11:28:24;;;;;;;0.00;0.00;;;18.60;63.40;;;;;;5090717;28;20215;-60
2023/04/30 11:30:55;;;;;;;0.00;0.00;;;18.60;64.70;;;;;;5090683;28;20175;-60
2023/04/30 11:33:22;;;;;;;0.00;0.00;;;18.60;64.80;;;;;;5090961;28;20187;-60
2023/04/30 11:35:51;;;;;;;0.00;0.00;;;18.50;66.00;;;;;;5091364;28;20176;-60
2023/04/30 11:38:32;;;;;;;0.00;0.00;;;18.50;66.80;;;;;;5091485;28;20184;-61
2023/04/30 11:40:59;;;;;;;0.00;0.00;;;18.50;67.40;;;;;;5090985;28;20545;-60
2023/04/30 11:43:27;;;;;;;0.00;0.00;;;18.60;66.10;;;;;;5091298;28;20245;-61
2023/04/30 11:46:14;;;;;;;0.00;0.00;;;18.60;63.60;;;;;;5091229;28;20195;-60
2023/04/30 11:48:42;;;;;;;0.00;0.00;;;18.40;63.10;;;;;;5089191;28;20251;-60
2023/04/30 11:51:19;;;;;;;0.00;0.00;;;18.40;62.50;;;;;;5088647;28;20172;-60
2023/04/30 11:53:50;;;;;;;0.00;0.00;;;18.30;63.30;;;;;;5078326;28;20184;-61
2023/04/30 11:56:21;;;;;;;0.00;0.00;;;18.50;65.00;;;;;;5071889;28;20672;-61
2023/04/30 11:58:48;;;;;;;0.00;0.00;;;18.70;65.20;;;;;;5084742;28;20184;-61
2023/04/30 12:01:14;;;;;;;0.00;0.00;;;18.90;65.10;;;;;;5071015;28;20230;-62
2023/04/30 12:03:45;;;;;;;0.03;0.03;;;19.00;63.40;;;;;;5086538;28;20233;-61
2023/04/30 12:06:11;;;;;;;0.00;0.00;;;19.20;63.40;;;;;;5090866;28;20258;-62
2023/04/30 12:08:37;;;;;;;0.00;0.00;;;19.20;63.70;;;;;;5090440;28;20288;-61
2023/04/30 12:11:06;;;;;;;0.00;0.00;;;19.20;61.40;;;;;;5091034;28;20636;-61
2023/04/30 12:13:32;;;;;;;0.00;0.00;;;19.20;60.70;;;;;;5090934;28;20229;-61
2023/04/30 12:15:59;;;;;;;0.10;0.10;;;19.10;61.00;;;;;;5090975;28;20172;-61
2023/04/30 12:18:25;;;;;;;0.00;0.00;;;19.00;61.50;;;;;;5091081;28;20176;-61
2023/04/30 12:20:51;;;;;;;0.00;0.00;;;19.10;62.40;;;;;;5078594;28;20169;-61
2023/04/30 12:23:18;;;;;;;0.00;0.00;;;19.20;63.40;;;;;;5082265;28;20262;-61
2023/04/30 12:25:43;;;;;;;0.00;0.00;;;19.20;63.40;;;;;;5088815;28;20766;-61
2023/04/30 12:28:10;;;;;;;0.00;0.00;;;19.30;63.50;;;;;;5094638;28;20291;-61
2023/04/30 12:30:35;;;;;;;0.00;0.00;;;19.40;63.20;;;;;;5094655;28;20184;-61
2023/04/30 12:33:02;;;;;;;0.00;0.00;;;19.60;62.40;;;;;;5094911;28;20183;-60
2023/04/30 12:35:30;;;;;;;0.00;0.00;;;19.80;62.10;;;;;;5094995;28;20176;-61
2023/04/30 12:38:04;;;;;;;0.00;0.00;;;19.80;60.30;;;;;;5094942;28;20606;-61
2023/04/30 12:40:30;;;;;;;0.00;0.00;;;19.70;59.80;;;;;;5094646;28;20184;-60
2023/04/30 12:43:06;;;;;;;0.00;0.00;;;19.70;60.80;;;;;;5093634;28;20187;-60
2023/04/30 12:45:52;;;;;;;0.00;0.00;;;19.70;59.70;;;;;;5094045;28;20186;-59
2023/04/30 12:48:24;;;;;;;0.00;0.00;;;19.60;59.20;;;;;;5084475;28;20253;-59
2023/04/30 12:50:57;;;;;;;0.00;0.00;;;19.60;59.60;;;;;;5093881;28;20181;-60